KFNL Airport Information


Runway Information
Runway 06 Length 2273 ft width 40 ft
Elevation 4990 ft Threshold 0 ft Heading 71
Runway 24 Length 2273 ft Width 40 ft
Elevation 4987 ft Threshold 0 ft Heading 251
Runway 15 Length 8500 ft width 100 ft
Elevation 4973 ft Threshold 0 ft Heading 160
Runway 33 Length 8500 ft Width 100 ft
Elevation 5016 ft Threshold 0 ft Heading 340
Airport Frequencies
Type A/D Name DENVER APP Frequency 134.85 MHZ
Type AWOS Name AWOS 3 Frequency 135.075 MHZ
Type CLD Name CLNC DEL Frequency 120.25 MHZ
Type RDO Name DENVER RDO Frequency 122.4 MHZ
Type UNIC Name CTAF/UNICO Frequency 122.7 MHZ
Airport Navaids
Airport Weather Information & NOTAM
ADDS - METARS form results

(0326 UTC 09 December 2021)
Data provider http://aviationweather.gov/metar/data/
 
METAR text: KFNL 090256Z 25014KT 10SM CLR 11/M05 A2954 RMK AO2 WSHFT 0233 SLP002 T01061050 55007
Conditions at: KFNL (FT COLLINS/LOVEL, CO, US) observed 0256 UTC 09 December 2021
Temperature: 10.6°C (51°F)
Dewpoint: -5.0°C (23°F) [RH = 33%]
Pressure (altimeter): 29.54 inches Hg (1000.4 mb)
[Sea-level pressure: 1000.2 mb]
Winds: from the WSW (250 degrees) at 16 MPH (14 knots; 7.2 m/s)
Visibility: 10 or more miles (16+ km)
Ceiling: at least 12,000 feet AGL
Clouds: sky clear below 12,000 feet AGL
Weather: no significant weather observed at this time

METAR text: KFNL 090253Z 24015KT 10SM CLR 11/M05 A2954 RMK AO2 WSHFT 0233
Conditions at: KFNL (FT COLLINS/LOVEL, CO, US) observed 0253 UTC 09 December 2021
Temperature: 11.0°C (52°F)
Dewpoint: -5.0°C (23°F) [RH = 32%]
Pressure (altimeter): 29.54 inches Hg (1000.4 mb)
Winds: from the WSW (240 degrees) at 17 MPH (15 knots; 7.7 m/s)
Visibility: 10 or more miles (16+ km)
Ceiling: at least 12,000 feet AGL
Clouds: sky clear below 12,000 feet AGL
Weather: no significant weather observed at this time